Time;durP1;ratioP1;P1;durP2;ratioP2;P2;SDS_P1;SDS_P2;PMS_P1;PMS_P2;Temp;Humidity;BMP_temperature;BMP_pressure;BME280_temperature;BME280_humidity;BME280_pressure;Samples;Min_cycle;Max_cycle;Signal;HPM_P1;HPM_P2
2024/03/18 00:01:55;;;;;;;6.53;4.83;;;;;;;;;;5054264;28;20185;-86
2024/03/18 00:04:21;;;;;;;7.90;4.90;;;;;;;;;;5057385;28;20435;-88
2024/03/18 00:06:48;;;;;;;5.27;4.50;;;;;;;;;;5054701;28;20174;-86
2024/03/18 00:09:14;;;;;;;6.63;4.28;;;;;;;;;;5069214;28;20523;-86
2024/03/18 00:11:40;;;;;;;7.47;5.03;;;;;;;;;;5055034;28;20196;-88
2024/03/18 00:14:07;;;;;;;7.78;4.00;;;;;;;;;;5070352;28;20513;-88
2024/03/18 00:16:33;;;;;;;6.80;4.25;;;;;;;;;;5054779;28;20208;-87
2024/03/18 00:18:59;;;;;;;6.05;4.10;;;;;;;;;;5055074;28;20181;-89
2024/03/18 00:21:25;;;;;;;8.35;4.30;;;;;;;;;;5055729;28;20226;-91
2024/03/18 00:23:51;;;;;;;6.87;4.23;;;;;;;;;;5053747;28;20653;-92
2024/03/18 00:26:17;;;;;;;5.27;4.67;;;;;;;;;;5054346;28;20427;-87
2024/03/18 00:28:43;;;;;;;6.40;5.00;;;;;;;;;;5053903;28;20487;-89
2024/03/18 00:31:12;;;;;;;5.70;5.10;;;;;;;;;;5054563;28;20836;-87
2024/03/18 00:33:38;;;;;;;8.35;5.20;;;;;;;;;;5070186;28;20416;-88
2024/03/18 00:36:04;;;;;;;7.47;4.80;;;;;;;;;;5053630;28;20568;-87
2024/03/18 00:38:30;;;;;;;8.52;4.60;;;;;;;;;;5054449;28;20178;-88
2024/03/18 00:41:44;;;;;;;6.40;4.40;;;;;;;;;;5054237;28;20174;-87
2024/03/18 00:43:42;;;;;;;7.45;4.40;;;;;;;;;;5054460;28;20440;-89
2024/03/18 00:46:08;;;;;;;8.90;5.05;;;;;;;;;;5069084;28;20245;-90
2024/03/18 00:48:34;;;;;;;8.02;5.13;;;;;;;;;;5069849;28;20221;-86
2024/03/18 00:51:00;;;;;;;11.68;5.18;;;;;;;;;;5053065;28;20189;-86
2024/03/18 00:53:27;;;;;;;7.75;5.82;;;;;;;;;;5070220;28;20196;-86
2024/03/18 00:55:53;;;;;;;10.13;5.40;;;;;;;;;;5053547;28;20573;-88
2024/03/18 00:58:19;;;;;;;8.43;5.50;;;;;;;;;;5054559;28;20536;-90
2024/03/18 01:00:45;;;;;;;7.82;5.82;;;;;;;;;;5054708;28;20253;-91
2024/03/18 01:03:12;;;;;;;7.80;6.30;;;;;;;;;;5053806;28;20219;-88
2024/03/18 01:05:39;;;;;;;9.45;5.93;;;;;;;;;;5070537;28;20420;-88
2024/03/18 01:08:06;;;;;;;9.77;6.40;;;;;;;;;;5054516;28;20220;-89
2024/03/18 01:10:32;;;;;;;7.38;5.72;;;;;;;;;;5070692;28;20188;-92
2024/03/18 01:12:58;;;;;;;9.35;6.75;;;;;;;;;;5070790;28;20178;-94
2024/03/18 01:15:24;;;;;;;11.32;6.07;;;;;;;;;;5071315;28;20213;-94
2024/03/18 01:17:52;;;;;;;7.77;6.63;;;;;;;;;;5054519;28;20247;-93
2024/03/18 01:20:19;;;;;;;8.10;5.72;;;;;;;;;;5056301;28;20491;-95
2024/03/18 01:22:48;;;;;;;7.65;5.60;;;;;;;;;;5071891;28;20234;-94
2024/03/18 01:25:14;;;;;;;7.90;5.53;;;;;;;;;;5071537;28;20272;-94
2024/03/18 01:27:40;;;;;;;11.13;6.55;;;;;;;;;;5055084;28;20212;-94
2024/03/18 01:30:15;;;;;;;11.20;6.50;;;;;;;;;;5071304;28;20185;-93
2024/03/18 01:32:42;;;;;;;8.13;6.60;;;;;;;;;;5071250;28;20181;-90
2024/03/18 01:35:15;;;;;;;7.95;6.10;;;;;;;;;;5076017;28;20641;-92
2024/03/18 01:37:41;;;;;;;11.98;6.47;;;;;;;;;;5071651;28;20261;-93
2024/03/18 01:40:10;;;;;;;8.07;6.72;;;;;;;;;;5055306;28;20173;-92
2024/03/18 01:42:36;;;;;;;9.80;7.05;;;;;;;;;;5053984;28;20290;-92
2024/03/18 01:45:03;;;;;;;10.63;6.50;;;;;;;;;;5054845;28;20201;-93
2024/03/18 01:47:29;;;;;;;9.80;6.85;;;;;;;;;;5070844;28;20479;-93
2024/03/18 01:49:56;;;;;;;8.97;7.10;;;;;;;;;;5055329;28;20177;-95
2024/03/18 01:52:22;;;;;;;11.02;7.05;;;;;;;;;;5071609;28;20759;-94
2024/03/18 01:54:48;;;;;;;9.65;6.85;;;;;;;;;;5047039;28;20236;-94
2024/03/18 01:57:15;;;;;;;9.52;7.22;;;;;;;;;;5036090;28;20282;-96
2024/03/18 01:59:41;;;;;;;10.07;6.82;;;;;;;;;;5052649;28;20208;-96
2024/03/18 02:02:07;;;;;;;9.70;7.15;;;;;;;;;;5037011;28;20248;-95
2024/03/18 02:04:34;;;;;;;10.05;7.28;;;;;;;;;;5052496;28;20183;-96
2024/03/18 02:07:00;;;;;;;11.63;8.80;;;;;;;;;;5052718;28;20313;-96
2024/03/18 02:09:27;;;;;;;8.80;7.30;;;;;;;;;;5052900;28;20186;-95
2024/03/18 02:11:53;;;;;;;11.25;8.35;;;;;;;;;;5038209;28;20618;-96
2024/03/18 02:14:19;;;;;;;13.27;8.83;;;;;;;;;;5055059;28;20182;-96
2024/03/18 02:16:45;;;;;;;12.52;8.10;;;;;;;;;;5056695;28;20444;-94
2024/03/18 02:19:11;;;;;;;12.15;8.40;;;;;;;;;;5055519;28;20174;-96
2024/03/18 02:21:37;;;;;;;10.55;8.82;;;;;;;;;;5058568;28;20265;-96
2024/03/18 02:24:06;;;;;;;11.90;8.50;;;;;;;;;;5059328;28;20244;-96
2024/03/18 02:26:32;;;;;;;11.65;8.20;;;;;;;;;;5066239;28;20178;-96
2024/03/18 02:28:58;;;;;;;11.40;8.45;;;;;;;;;;5067492;28;20237;-96
2024/03/18 02:31:24;;;;;;;9.45;8.45;;;;;;;;;;5067366;28;20204;-94
2024/03/18 02:33:51;;;;;;;14.52;8.55;;;;;;;;;;5049599;28;20189;-95
2024/03/18 02:36:18;;;;;;;12.05;9.05;;;;;;;;;;5064042;28;20182;-95
2024/03/18 02:38:44;;;;;;;15.65;9.65;;;;;;;;;;5064194;28;20675;-94
2024/03/18 02:41:10;;;;;;;12.77;9.20;;;;;;;;;;5068498;28;20180;-96
2024/03/18 02:43:36;;;;;;;12.77;8.40;;;;;;;;;;5063226;28;20251;-96
2024/03/18 02:46:04;;;;;;;10.68;8.27;;;;;;;;;;5066387;28;20435;-96
2024/03/18 02:48:30;;;;;;;10.90;8.23;;;;;;;;;;5083536;28;20217;-96
2024/03/18 02:50:56;;;;;;;11.95;8.90;;;;;;;;;;5083018;28;20193;-90
2024/03/18 02:53:22;;;;;;;16.13;9.07;;;;;;;;;;5082967;28;20176;-96
2024/03/18 02:55:48;;;;;;;13.60;9.40;;;;;;;;;;5083774;28;20419;-96
2024/03/18 02:58:14;;;;;;;11.83;9.07;;;;;;;;;;5063554;28;20424;-94
2024/03/18 03:00:40;;;;;;;12.75;9.90;;;;;;;;;;5062903;28;20426;-96
2024/03/18 03:03:06;;;;;;;12.35;8.75;;;;;;;;;;5068720;28;20184;-96
2024/03/18 03:05:32;;;;;;;12.48;10.10;;;;;;;;;;5086628;28;20178;-96
2024/03/18 03:07:58;;;;;;;14.30;9.00;;;;;;;;;;5072937;28;20233;-93
2024/03/18 03:10:24;;;;;;;13.27;9.67;;;;;;;;;;5074054;28;20201;-96
2024/03/18 03:12:50;;;;;;;15.45;9.13;;;;;;;;;;5084664;28;20419;-94
2024/03/18 03:15:16;;;;;;;13.57;9.33;;;;;;;;;;5057142;28;20197;-96
2024/03/18 03:17:43;;;;;;;12.00;9.70;;;;;;;;;;5085892;28;20466;-96
2024/03/18 03:20:09;;;;;;;16.05;9.60;;;;;;;;;;5068419;28;20416;-96
2024/03/18 03:22:36;;;;;;;10.40;8.80;;;;;;;;;;5069258;28;20181;-96
2024/03/18 03:25:03;;;;;;;12.77;9.32;;;;;;;;;;5082588;28;20178;-95
2024/03/18 03:27:29;;;;;;;14.07;9.73;;;;;;;;;;5085652;28;20626;-96
2024/03/18 03:29:55;;;;;;;12.98;10.00;;;;;;;;;;5084017;28;20181;-96
2024/03/18 03:32:22;;;;;;;10.32;8.38;;;;;;;;;;5065141;28;20174;-96
2024/03/18 03:34:48;;;;;;;12.57;8.00;;;;;;;;;;5079913;28;20211;-94
2024/03/18 03:37:14;;;;;;;12.07;7.70;;;;;;;;;;5064039;28;20272;-96
2024/03/18 03:39:40;;;;;;;12.67;8.30;;;;;;;;;;5063539;28;20424;-96
2024/03/18 03:42:06;;;;;;;12.50;9.00;;;;;;;;;;5079774;28;20743;-94
2024/03/18 03:44:32;;;;;;;9.48;7.78;;;;;;;;;;5062541;28;20527;-96
2024/03/18 03:46:58;;;;;;;10.00;7.82;;;;;;;;;;5078247;28;20240;-96
2024/03/18 03:49:25;;;;;;;11.98;9.20;;;;;;;;;;5080439;28;20641;-96
2024/03/18 03:51:51;;;;;;;12.60;8.57;;;;;;;;;;5065804;28;20177;-96
2024/03/18 03:54:17;;;;;;;9.55;8.10;;;;;;;;;;5085313;28;20177;-96
2024/03/18 03:56:43;;;;;;;12.80;7.83;;;;;;;;;;5086222;28;20209;-96
2024/03/18 03:59:09;;;;;;;10.60;8.00;;;;;;;;;;5069263;28;20418;-96
2024/03/18 04:01:35;;;;;;;12.60;9.40;;;;;;;;;;5066561;28;20519;-96
2024/03/18 04:04:01;;;;;;;10.38;8.32;;;;;;;;;;5066580;28;20424;-96
2024/03/18 04:06:27;;;;;;;11.20;8.97;;;;;;;;;;5069224;28;20189;-96
2024/03/18 04:08:53;;;;;;;13.10;9.57;;;;;;;;;;5069204;28;20495;-96
2024/03/18 04:11:19;;;;;;;12.57;9.30;;;;;;;;;;5068908;28;20424;-96
2024/03/18 04:13:45;;;;;;;10.70;9.57;;;;;;;;;;5088360;28;20445;-96
2024/03/18 04:16:11;;;;;;;12.90;9.97;;;;;;;;;;5071071;28;20186;-96
2024/03/18 04:18:38;;;;;;;14.45;10.57;;;;;;;;;;5085471;28;20424;-96
2024/03/18 04:21:04;;;;;;;12.95;9.15;;;;;;;;;;5065038;28;20652;-94
2024/03/18 04:23:32;;;;;;;15.25;9.80;;;;;;;;;;5063919;28;20178;-95
2024/03/18 04:25:59;;;;;;;15.68;10.15;;;;;;;;;;5080406;28;20216;-95
2024/03/18 04:28:25;;;;;;;12.40;9.82;;;;;;;;;;5080956;28;20220;-96
2024/03/18 04:30:51;;;;;;;12.80;9.02;;;;;;;;;;5069295;28;20177;-96
2024/03/18 04:33:17;;;;;;;13.30;9.20;;;;;;;;;;5086042;28;20189;-96
2024/03/18 04:35:43;;;;;;;13.90;9.90;;;;;;;;;;5069730;28;20180;-96
2024/03/18 04:38:09;;;;;;;13.15;9.93;;;;;;;;;;5085214;28;20420;-96
2024/03/18 04:40:35;;;;;;;16.30;10.00;;;;;;;;;;5082146;28;20597;-94
2024/03/18 04:43:01;;;;;;;15.03;10.10;;;;;;;;;;5085106;28;20184;-96
2024/03/18 04:45:27;;;;;;;17.90;10.80;;;;;;;;;;5086272;28;20480;-95
2024/03/18 04:47:54;;;;;;;15.60;11.27;;;;;;;;;;5068352;28;20545;-96
2024/03/18 04:50:24;;;;;;;14.63;10.68;;;;;;;;;;5085600;28;20174;-96
2024/03/18 04:52:51;;;;;;;13.82;9.68;;;;;;;;;;5085458;28;20189;-96
2024/03/18 04:55:17;;;;;;;17.77;10.40;;;;;;;;;;5068185;28;20169;-91
2024/03/18 04:57:43;;;;;;;15.57;9.60;;;;;;;;;;5084246;28;20185;-96
2024/03/18 05:00:11;;;;;;;14.37;10.67;;;;;;;;;;5082663;28;20275;-96
2024/03/18 05:02:37;;;;;;;18.23;11.77;;;;;;;;;;5081623;28;20419;-96
2024/03/18 05:05:04;;;;;;;19.90;13.37;;;;;;;;;;5080268;28;20185;-89
2024/03/18 05:07:30;;;;;;;19.58;12.55;;;;;;;;;;5060208;28;20506;-96
2024/03/18 05:09:56;;;;;;;17.60;13.65;;;;;;;;;;5078097;28;20223;-96
2024/03/18 05:12:22;;;;;;;25.83;14.23;;;;;;;;;;5077686;28;20636;-96
2024/03/18 05:14:48;;;;;;;21.30;14.90;;;;;;;;;;5059555;28;20420;-96
2024/03/18 05:17:14;;;;;;;24.63;15.10;;;;;;;;;;5074373;28;20420;-96
2024/03/18 05:19:40;;;;;;;24.08;15.80;;;;;;;;;;5073794;28;20523;-96
2024/03/18 05:22:06;;;;;;;29.63;16.23;;;;;;;;;;5073102;28;20184;-95
2024/03/18 05:24:33;;;;;;;26.77;16.00;;;;;;;;;;5073225;28;20182;-96
2024/03/18 05:26:59;;;;;;;24.75;15.50;;;;;;;;;;5056189;28;20497;-94
2024/03/18 05:29:25;;;;;;;24.23;16.88;;;;;;;;;;5055922;28;20209;-96
2024/03/18 05:31:51;;;;;;;31.35;18.70;;;;;;;;;;5072894;28;20177;-96
2024/03/18 05:34:17;;;;;;;27.07;16.60;;;;;;;;;;5073073;28;20180;-96
2024/03/18 05:36:43;;;;;;;24.75;15.90;;;;;;;;;;5056918;28;20511;-96
2024/03/18 05:39:10;;;;;;;25.33;15.05;;;;;;;;;;5057000;28;20297;-96
2024/03/18 05:41:36;;;;;;;25.20;16.20;;;;;;;;;;5058523;28;20203;-96
2024/03/18 05:44:02;;;;;;;22.75;16.13;;;;;;;;;;5057144;28;20177;-96
2024/03/18 05:46:28;;;;;;;27.83;16.83;;;;;;;;;;5075918;28;20241;-96
2024/03/18 05:48:54;;;;;;;20.75;14.07;;;;;;;;;;5073273;28;20687;-95
2024/03/18 05:51:21;;;;;;;23.37;16.50;;;;;;;;;;5072679;28;20264;-96
2024/03/18 05:53:47;;;;;;;24.90;16.90;;;;;;;;;;5058484;28;20396;-95
2024/03/18 05:56:13;;;;;;;25.00;16.30;;;;;;;;;;5074737;28;20180;-96
2024/03/18 05:58:39;;;;;;;29.55;17.25;;;;;;;;;;5057719;28;20457;-96
2024/03/18 06:01:11;;;;;;;29.23;17.92;;;;;;;;;;5059948;28;20185;-96
2024/03/18 06:03:39;;;;;;;25.58;17.33;;;;;;;;;;5075976;28;20197;-95
2024/03/18 06:06:09;;;;;;;25.95;15.15;;;;;;;;;;5060531;28;20543;-96
2024/03/18 06:08:35;;;;;;;30.13;17.15;;;;;;;;;;5058606;28;20244;-94
2024/03/18 06:11:01;;;;;;;28.83;18.13;;;;;;;;;;5069421;28;20201;-87
2024/03/18 06:13:28;;;;;;;33.33;19.63;;;;;;;;;;5067187;28;20185;-88
2024/03/18 06:15:54;;;;;;;27.92;18.30;;;;;;;;;;5055928;28;20174;-88
2024/03/18 06:18:20;;;;;;;34.33;18.67;;;;;;;;;;5060693;28;20696;-92
2024/03/18 06:20:50;;;;;;;34.63;18.50;;;;;;;;;;5063582;28;20182;-91
2024/03/18 06:23:26;;;;;;;31.63;19.20;;;;;;;;;;5049841;28;20446;-88
2024/03/18 06:25:55;;;;;;;30.45;19.58;;;;;;;;;;5063356;28;20177;-91
2024/03/18 06:28:21;;;;;;;30.98;18.90;;;;;;;;;;5069719;28;20228;-91
2024/03/18 06:30:50;;;;;;;29.27;19.10;;;;;;;;;;5049188;28;20182;-91
2024/03/18 06:33:16;;;;;;;32.90;20.15;;;;;;;;;;5045174;28;20244;-91
2024/03/18 06:35:43;;;;;;;33.35;19.05;;;;;;;;;;5060661;28;20672;-91
2024/03/18 06:38:09;;;;;;;29.50;19.05;;;;;;;;;;5052559;28;20186;-91
2024/03/18 06:40:35;;;;;;;33.00;20.10;;;;;;;;;;5060352;28;20696;-91
2024/03/18 06:43:01;;;;;;;29.38;17.60;;;;;;;;;;5043296;28;20178;-92
2024/03/18 06:45:27;;;;;;;31.90;17.37;;;;;;;;;;5043594;28;20247;-91
2024/03/18 06:47:53;;;;;;;31.20;18.93;;;;;;;;;;5063535;28;20498;-91
2024/03/18 06:50:20;;;;;;;29.93;18.33;;;;;;;;;;5056463;28;20885;-91
2024/03/18 06:52:46;;;;;;;28.88;17.83;;;;;;;;;;5063395;28;20425;-91
2024/03/18 06:55:12;;;;;;;31.60;19.07;;;;;;;;;;5049755;28;20212;-90
2024/03/18 06:57:39;;;;;;;29.95;19.27;;;;;;;;;;5047046;28;20465;-91
2024/03/18 07:00:06;;;;;;;33.88;20.55;;;;;;;;;;5066300;28;20205;-91
2024/03/18 07:02:34;;;;;;;34.03;21.17;;;;;;;;;;5064150;28;20197;-91
2024/03/18 07:05:00;;;;;;;33.92;20.65;;;;;;;;;;5044783;28;20178;-86
2024/03/18 07:07:26;;;;;;;37.55;22.10;;;;;;;;;;5050973;28;20224;-91
2024/03/18 07:09:52;;;;;;;33.60;19.95;;;;;;;;;;5062943;28;20182;-90
2024/03/18 07:12:18;;;;;;;33.20;20.70;;;;;;;;;;5047360;28;20185;-91
2024/03/18 07:14:44;;;;;;;33.13;18.20;;;;;;;;;;5060770;28;20458;-91
2024/03/18 07:17:10;;;;;;;32.17;18.80;;;;;;;;;;5065234;28;20444;-90
2024/03/18 07:19:36;;;;;;;26.02;17.42;;;;;;;;;;5072091;28;20524;-91
2024/03/18 07:22:03;;;;;;;33.47;19.77;;;;;;;;;;5041064;28;20193;-91
2024/03/18 07:24:29;;;;;;;27.25;17.35;;;;;;;;;;5052151;28;20193;-91
2024/03/18 07:26:55;;;;;;;27.27;17.93;;;;;;;;;;5053075;28;20183;-92
2024/03/18 07:29:21;;;;;;;27.50;18.63;;;;;;;;;;5069699;28;20441;-92
2024/03/18 07:31:47;;;;;;;29.70;17.53;;;;;;;;;;5072040;28;20416;-91
2024/03/18 07:34:13;;;;;;;29.92;18.00;;;;;;;;;;5069248;28;20432;-91
2024/03/18 07:36:39;;;;;;;30.20;18.60;;;;;;;;;;5066591;28;20182;-92
2024/03/18 07:39:05;;;;;;;26.95;17.95;;;;;;;;;;5061381;28;20436;-92
2024/03/18 07:41:32;;;;;;;24.98;17.48;;;;;;;;;;5048605;28;20182;-91
2024/03/18 07:43:58;;;;;;;23.05;15.90;;;;;;;;;;5050132;28;20236;-91
2024/03/18 07:46:24;;;;;;;26.27;17.00;;;;;;;;;;5051647;28;20279;-92
2024/03/18 07:48:50;;;;;;;24.10;16.20;;;;;;;;;;5064176;28;20268;-91
2024/03/18 07:51:16;;;;;;;22.90;15.93;;;;;;;;;;5044446;28;20551;-90
2024/03/18 07:53:42;;;;;;;24.40;16.57;;;;;;;;;;5049230;28;20432;-85
2024/03/18 07:56:10;;;;;;;21.13;15.70;;;;;;;;;;5066006;28;20431;-91
2024/03/18 07:58:36;;;;;;;20.85;15.02;;;;;;;;;;5048166;28;20498;-91
2024/03/18 08:01:02;;;;;;;24.40;16.23;;;;;;;;;;5042912;28;20178;-91
2024/03/18 08:03:27;;;;;;;26.23;18.60;;;;;;;;;;5052545;28;20420;-91
2024/03/18 08:05:53;;;;;;;20.63;14.80;;;;;;;;;;5068239;28;20450;-91
2024/03/18 08:08:19;;;;;;;22.07;15.40;;;;;;;;;;5055586;28;20472;-91
2024/03/18 08:10:46;;;;;;;20.88;14.63;;;;;;;;;;5067703;28;20427;-91
2024/03/18 08:13:15;;;;;;;26.40;17.77;;;;;;;;;;5048899;28;20221;-91
2024/03/18 08:15:44;;;;;;;24.15;15.68;;;;;;;;;;5041339;28;20704;-91
2024/03/18 08:18:11;;;;;;;18.98;13.98;;;;;;;;;;5065864;28;20190;-90
2024/03/18 08:20:37;;;;;;;19.95;14.15;;;;;;;;;;5043120;28;20186;-90
2024/03/18 08:23:04;;;;;;;19.90;13.68;;;;;;;;;;5044689;28;20188;-91
2024/03/18 08:25:30;;;;;;;16.67;13.47;;;;;;;;;;5068167;28;20173;-90
2024/03/18 08:27:56;;;;;;;18.33;13.93;;;;;;;;;;5047182;28;20460;-90
2024/03/18 08:30:22;;;;;;;18.20;13.30;;;;;;;;;;5046864;28;20790;-89
2024/03/18 08:32:48;;;;;;;16.50;13.13;;;;;;;;;;5054001;28;20424;-90
2024/03/18 08:35:14;;;;;;;13.10;11.30;;;;;;;;;;5068105;28;20440;-89
2024/03/18 08:37:42;;;;;;;13.90;11.53;;;;;;;;;;5043888;28;20806;-89
2024/03/18 08:40:09;;;;;;;14.67;10.13;;;;;;;;;;5055359;28;20428;-89
2024/03/18 08:42:35;;;;;;;11.90;9.70;;;;;;;;;;5066782;28;20462;-89
2024/03/18 08:45:01;;;;;;;13.60;10.40;;;;;;;;;;5045729;28;20459;-90
2024/03/18 08:47:27;;;;;;;12.30;9.40;;;;;;;;;;5063171;28;20496;-89
2024/03/18 08:49:53;;;;;;;10.97;8.90;;;;;;;;;;5058965;28;20939;-89
2024/03/18 08:52:19;;;;;;;13.10;8.87;;;;;;;;;;5043328;28;20425;-88
2024/03/18 08:54:47;;;;;;;11.33;8.60;;;;;;;;;;5049784;28;20470;-89
2024/03/18 08:57:13;;;;;;;9.30;8.40;;;;;;;;;;5060170;28;20495;-88
2024/03/18 08:59:39;;;;;;;12.17;9.00;;;;;;;;;;5045529;28;20443;-87
2024/03/18 09:02:05;;;;;;;10.67;8.47;;;;;;;;;;5048510;28;20470;-89
2024/03/18 09:04:31;;;;;;;12.33;8.13;;;;;;;;;;5065943;28;20512;-88
2024/03/18 09:06:57;;;;;;;12.93;7.37;;;;;;;;;;5059854;28;20420;-89
2024/03/18 09:09:23;;;;;;;7.67;6.90;;;;;;;;;;5062568;28;20480;-88
2024/03/18 09:11:49;;;;;;;7.93;6.97;;;;;;;;;;5060565;28;20471;-87
2024/03/18 09:14:15;;;;;;;7.80;6.47;;;;;;;;;;5046341;28;20713;-87
2024/03/18 09:16:41;;;;;;;15.60;7.07;;;;;;;;;;5046197;28;20479;-88
2024/03/18 09:19:07;;;;;;;9.73;7.00;;;;;;;;;;5043721;28;20401;-89
2024/03/18 09:21:33;;;;;;;8.00;6.57;;;;;;;;;;5064171;28;20839;-88
2024/03/18 09:23:59;;;;;;;8.07;6.83;;;;;;;;;;5052241;28;20428;-88
2024/03/18 09:26:25;;;;;;;8.10;7.10;;;;;;;;;;5046821;28;20927;-87
2024/03/18 09:28:51;;;;;;;9.33;7.13;;;;;;;;;;5055792;28;20469;-87
2024/03/18 09:31:17;;;;;;;10.33;7.40;;;;;;;;;;5057711;28;20434;-88
2024/03/18 09:33:43;;;;;;;9.57;7.60;;;;;;;;;;5052498;28;20421;-87
2024/03/18 09:36:09;;;;;;;7.90;7.13;;;;;;;;;;5045078;28;20417;-86
2024/03/18 09:38:35;;;;;;;10.13;7.63;;;;;;;;;;5045518;28;20472;-87
2024/03/18 09:41:05;;;;;;;9.07;7.60;;;;;;;;;;5042853;28;20428;-86
2024/03/18 09:43:35;;;;;;;10.87;8.83;;;;;;;;;;5058653;28;20520;-87
2024/03/18 09:46:05;;;;;;;10.43;7.73;;;;;;;;;;5063933;28;20556;-85
2024/03/18 09:48:31;;;;;;;10.73;7.90;;;;;;;;;;5055612;28;20955;-85
2024/03/18 09:50:59;;;;;;;11.13;7.27;;;;;;;;;;5045891;28;20464;-85
2024/03/18 09:53:26;;;;;;;10.30;7.13;;;;;;;;;;5067867;28;20408;-85
2024/03/18 09:55:51;;;;;;;10.90;6.40;;;;;;;;;;5058103;28;20438;-84
2024/03/18 09:58:17;;;;;;;10.33;5.80;;;;;;;;;;5047303;28;20435;-85
2024/03/18 10:00:45;;;;;;;6.80;4.93;;;;;;;;;;5039089;28;20428;-85
2024/03/18 10:03:18;;;;;;;8.90;5.83;;;;;;;;;;5060904;28;20781;-85
2024/03/18 10:05:45;;;;;;;7.83;4.77;;;;;;;;;;5047648;28;20420;-85
2024/03/18 10:08:15;;;;;;;9.23;4.80;;;;;;;;;;5053780;28;20521;-85
2024/03/18 10:10:41;;;;;;;8.50;3.70;;;;;;;;;;5045572;28;20981;-85
2024/03/18 10:13:08;;;;;;;6.40;3.17;;;;;;;;;;5053512;28;20415;-84
2024/03/18 10:15:34;;;;;;;6.93;3.77;;;;;;;;;;5062523;28;20427;-85
2024/03/18 10:18:00;;;;;;;5.63;3.00;;;;;;;;;;5060726;28;20447;-85
2024/03/18 10:20:26;;;;;;;7.90;2.97;;;;;;;;;;5043080;28;20454;-85
2024/03/18 10:22:53;;;;;;;15.30;3.70;;;;;;;;;;5063284;28;20753;-84
2024/03/18 10:25:24;;;;;;;6.13;3.87;;;;;;;;;;5065752;28;20436;-84
2024/03/18 10:27:51;;;;;;;8.27;2.90;;;;;;;;;;5037835;28;20487;-84
2024/03/18 10:30:17;;;;;;;10.53;3.90;;;;;;;;;;5040600;28;20777;-84
2024/03/18 10:32:44;;;;;;;9.13;2.60;;;;;;;;;;5062186;28;20948;-85
2024/03/18 10:35:32;;;;;;;4.90;2.07;;;;;;;;;;5042920;28;20387;-85
2024/03/18 10:37:58;;;;;;;6.97;2.10;;;;;;;;;;5044253;28;20804;-84
2024/03/18 10:40:34;;;;;;;10.70;2.43;;;;;;;;;;5040632;28;20425;-85
2024/03/18 10:43:10;;;;;;;7.63;3.07;;;;;;;;;;5040564;28;20448;-84
2024/03/18 10:45:37;;;;;;;7.17;2.50;;;;;;;;;;5045699;28;20423;-84
2024/03/18 10:48:07;;;;;;;9.63;2.67;;;;;;;;;;5043268;28;20495;-85
2024/03/18 10:50:33;;;;;;;6.10;1.97;;;;;;;;;;5060563;28;20514;-84
2024/03/18 10:53:00;;;;;;;5.00;2.70;;;;;;;;;;5051210;28;20446;-85
2024/03/18 10:55:29;;;;;;;7.80;3.00;;;;;;;;;;5049410;28;20421;-85
2024/03/18 10:57:56;;;;;;;11.20;3.50;;;;;;;;;;5044768;28;20523;-84
2024/03/18 11:00:22;;;;;;;9.93;3.27;;;;;;;;;;5045743;28;20425;-85
2024/03/18 11:02:59;;;;;;;7.13;1.97;;;;;;;;;;5040703;28;20420;-84
2024/03/18 11:05:26;;;;;;;3.87;2.10;;;;;;;;;;5049648;28;20468;-84
2024/03/18 11:07:53;;;;;;;9.27;2.47;;;;;;;;;;5051933;28;20575;-86
2024/03/18 11:10:19;;;;;;;6.07;2.30;;;;;;;;;;5053455;28;20451;-84
2024/03/18 11:12:45;;;;;;;6.70;2.80;;;;;;;;;;5054874;28;20435;-85
2024/03/18 11:15:11;;;;;;;8.50;3.07;;;;;;;;;;5064924;28;20435;-84
2024/03/18 11:17:48;;;;;;;3.93;2.10;;;;;;;;;;5047233;28;20996;-85
2024/03/18 11:20:22;;;;;;;9.47;3.10;;;;;;;;;;5043286;28;20444;-82
2024/03/18 11:22:58;;;;;;;7.73;2.83;;;;;;;;;;5045342;28;20428;-84
2024/03/18 11:25:28;;;;;;;7.63;2.63;;;;;;;;;;5053646;28;20473;-84
2024/03/18 11:27:55;;;;;;;5.60;2.20;;;;;;;;;;5069947;28;20490;-84
2024/03/18 11:30:25;;;;;;;5.47;2.50;;;;;;;;;;5064901;28;20944;-84
2024/03/18 11:32:52;;;;;;;4.20;2.10;;;;;;;;;;5063982;28;20428;-85
2024/03/18 11:35:18;;;;;;;8.57;3.40;;;;;;;;;;5069533;28;20434;-84
2024/03/18 11:37:47;;;;;;;5.47;2.57;;;;;;;;;;5051111;28;20428;-84
2024/03/18 11:40:15;;;;;;;3.80;2.17;;;;;;;;;;5047721;28;20407;-84
2024/03/18 11:42:41;;;;;;;7.03;2.50;;;;;;;;;;5049622;28;20466;-84
2024/03/18 11:45:15;;;;;;;4.47;2.20;;;;;;;;;;5063700;28;20825;-84
2024/03/18 11:47:41;;;;;;;5.90;2.57;;;;;;;;;;5065177;28;20979;-85
2024/03/18 11:50:07;;;;;;;4.40;2.90;;;;;;;;;;5049747;28;20457;-85
2024/03/18 11:52:33;;;;;;;6.90;2.77;;;;;;;;;;5044654;28;20431;-83
2024/03/18 11:54:59;;;;;;;8.10;3.70;;;;;;;;;;5048143;28;20428;-84
2024/03/18 11:57:25;;;;;;;6.30;3.57;;;;;;;;;;5052415;28;20420;-84
2024/03/18 11:59:51;;;;;;;5.00;3.10;;;;;;;;;;5051394;28;20428;-83
2024/03/18 12:02:17;;;;;;;4.07;2.60;;;;;;;;;;5055802;28;20408;-83
2024/03/18 12:04:43;;;;;;;5.60;2.93;;;;;;;;;;5042327;28;20494;-84
2024/03/18 12:07:11;;;;;;;6.57;3.03;;;;;;;;;;5043394;28;20863;-87
2024/03/18 12:09:37;;;;;;;5.77;2.97;;;;;;;;;;5054449;28;20456;-87
2024/03/18 12:12:03;;;;;;;6.83;3.67;;;;;;;;;;5068066;28;20451;-85
2024/03/18 12:14:31;;;;;;;4.87;3.40;;;;;;;;;;5053111;28;20487;-86
2024/03/18 12:16:57;;;;;;;6.00;3.47;;;;;;;;;;5048462;28;20932;-86
2024/03/18 12:19:24;;;;;;;7.67;3.40;;;;;;;;;;5056033;28;20883;-83
2024/03/18 12:21:50;;;;;;;7.00;3.60;;;;;;;;;;5050859;28;20413;-84
2024/03/18 12:29:48;;;;;;;6.13;3.50;;;;;;;;;;5046659;28;20447;-83
2024/03/18 12:32:13;;;;;;;6.60;3.40;;;;;;;;;;5041489;28;20409;-83
2024/03/18 12:34:42;;;;;;;5.40;3.27;;;;;;;;;;5047715;28;20401;-83
2024/03/18 12:37:13;;;;;;;4.33;3.13;;;;;;;;;;5048171;28;20384;-83
2024/03/18 12:39:39;;;;;;;5.50;2.73;;;;;;;;;;5067424;28;20403;-85
2024/03/18 12:42:06;;;;;;;5.90;2.50;;;;;;;;;;5052425;28;20460;-84
2024/03/18 12:44:32;;;;;;;8.13;2.80;;;;;;;;;;5063079;28;20396;-83
2024/03/18 12:46:58;;;;;;;5.00;2.87;;;;;;;;;;5048015;28;20484;-83
2024/03/18 12:49:23;;;;;;;2.93;2.30;;;;;;;;;;5062173;28;20467;-83
2024/03/18 12:51:50;;;;;;;6.70;2.73;;;;;;;;;;5049911;28;20506;-84
2024/03/18 12:54:16;;;;;;;2.70;2.50;;;;;;;;;;5051752;28;20893;-83
2024/03/18 12:56:41;;;;;;;7.87;2.73;;;;;;;;;;5062526;28;20431;-86
2024/03/18 12:59:08;;;;;;;7.80;2.63;;;;;;;;;;5044144;28;20439;-84
2024/03/18 13:01:34;;;;;;;3.37;2.40;;;;;;;;;;5047523;28;20485;-84
2024/03/18 13:04:00;;;;;;;3.43;2.60;;;;;;;;;;5061741;28;20948;-84
2024/03/18 13:06:26;;;;;;;5.47;3.10;;;;;;;;;;5049480;28;20434;-83
2024/03/18 13:08:52;;;;;;;4.67;2.67;;;;;;;;;;5044383;28;20471;-83
2024/03/18 13:11:18;;;;;;;4.60;2.80;;;;;;;;;;5058682;28;20528;-84
2024/03/18 13:13:44;;;;;;;7.63;3.20;;;;;;;;;;5050198;28;20441;-84
2024/03/18 13:16:13;;;;;;;4.60;2.70;;;;;;;;;;5049244;28;20535;-84
2024/03/18 13:18:39;;;;;;;8.30;4.10;;;;;;;;;;5055875;28;20432;-85
2024/03/18 13:21:06;;;;;;;6.60;3.90;;;;;;;;;;5050822;28;20399;-84
2024/03/18 13:23:32;;;;;;;6.97;2.93;;;;;;;;;;5047681;28;20506;-83
2024/03/18 13:25:59;;;;;;;9.57;3.20;;;;;;;;;;5043972;28;20889;-84
2024/03/18 13:28:27;;;;;;;12.10;3.60;;;;;;;;;;5047727;28;20461;-83
2024/03/18 13:30:54;;;;;;;8.77;3.90;;;;;;;;;;5050160;28;20784;-83
2024/03/18 13:33:20;;;;;;;6.60;3.80;;;;;;;;;;5052100;28;20411;-83
2024/03/18 13:35:46;;;;;;;5.20;3.83;;;;;;;;;;5046533;28;20428;-84
2024/03/18 13:38:12;;;;;;;5.07;2.93;;;;;;;;;;5040776;28;20447;-84
2024/03/18 13:40:39;;;;;;;3.37;2.63;;;;;;;;;;5042914;28;20434;-85
2024/03/18 13:43:05;;;;;;;7.83;3.30;;;;;;;;;;5049545;28;20390;-85
2024/03/18 13:45:32;;;;;;;4.80;3.23;;;;;;;;;;5051496;28;20435;-84
2024/03/18 13:48:03;;;;;;;6.07;3.30;;;;;;;;;;5057455;28;20492;-83
2024/03/18 13:50:30;;;;;;;10.43;3.73;;;;;;;;;;5060310;28;20936;-83
2024/03/18 13:52:56;;;;;;;4.77;3.60;;;;;;;;;;5049231;28;20503;-84
2024/03/18 13:55:23;;;;;;;6.77;4.33;;;;;;;;;;5043628;28;20460;-83
2024/03/18 13:57:49;;;;;;;8.93;4.57;;;;;;;;;;5053587;28;20387;-84
2024/03/18 14:00:19;;;;;;;8.63;4.50;;;;;;;;;;5046123;28;20508;-83
2024/03/18 14:02:46;;;;;;;8.73;4.07;;;;;;;;;;5041538;28;20477;-83
2024/03/18 14:05:12;;;;;;;8.20;4.50;;;;;;;;;;5051226;28;20449;-84
2024/03/18 14:07:38;;;;;;;9.60;5.50;;;;;;;;;;5062104;28;20519;-82
2024/03/18 14:10:05;;;;;;;5.03;3.60;;;;;;;;;;5051192;28;20410;-82
2024/03/18 14:12:31;;;;;;;7.27;4.20;;;;;;;;;;5044382;28;20463;-85
2024/03/18 14:15:00;;;;;;;6.40;3.83;;;;;;;;;;5040873;28;20953;-84
2024/03/18 14:17:26;;;;;;;6.43;4.20;;;;;;;;;;5051786;28;20427;-84
2024/03/18 14:19:52;;;;;;;12.30;4.27;;;;;;;;;;5063399;28;20414;-85
2024/03/18 14:22:18;;;;;;;5.13;3.93;;;;;;;;;;5049574;28;20429;-86
2024/03/18 14:24:47;;;;;;;6.03;4.00;;;;;;;;;;5066271;28;20440;-83
2024/03/18 14:27:13;;;;;;;11.23;5.17;;;;;;;;;;5054231;28;20398;-83
2024/03/18 14:29:40;;;;;;;7.20;4.60;;;;;;;;;;5052084;28;21018;-87
2024/03/18 14:32:06;;;;;;;9.93;5.67;;;;;;;;;;5066896;28;20439;-83
2024/03/18 14:34:32;;;;;;;13.37;6.60;;;;;;;;;;5049266;28;20434;-83